sensor_id;sensor_type;location;lat;lon;timestamp;P1;durP1;ratioP1;P2;durP2;ratioP2
43449;SDS011;29041;42.266;23.110;2023-03-14T00:02:02;9.90;;;5.05;;
43449;SDS011;29041;42.266;23.110;2023-03-14T00:04:49;10.70;;;5.10;;
43449;SDS011;29041;42.266;23.110;2023-03-14T00:07:37;11.88;;;5.20;;
43449;SDS011;29041;42.266;23.110;2023-03-14T00:10:25;12.43;;;4.88;;
43449;SDS011;29041;42.266;23.110;2023-03-14T00:13:12;14.57;;;5.35;;
43449;SDS011;29041;42.266;23.110;2023-03-14T00:16:03;14.68;;;4.78;;
43449;SDS011;29041;42.266;23.110;2023-03-14T00:18:50;27.70;;;9.23;;
43449;SDS011;29041;42.266;23.110;2023-03-14T00:21:37;18.92;;;8.38;;
43449;SDS011;29041;42.266;23.110;2023-03-14T00:24:24;15.48;;;6.38;;
43449;SDS011;29041;42.266;23.110;2023-03-14T00:27:12;14.95;;;6.22;;
43449;SDS011;29041;42.266;23.110;2023-03-14T00:30:02;14.32;;;5.75;;
43449;SDS011;29041;42.266;23.110;2023-03-14T00:32:49;11.95;;;5.97;;
43449;SDS011;29041;42.266;23.110;2023-03-14T00:35:37;7.68;;;4.90;;
43449;SDS011;29041;42.266;23.110;2023-03-14T00:38:25;7.60;;;4.78;;
43449;SDS011;29041;42.266;23.110;2023-03-14T00:41:15;9.68;;;4.93;;
43449;SDS011;29041;42.266;23.110;2023-03-14T00:44:04;8.43;;;4.82;;
43449;SDS011;29041;42.266;23.110;2023-03-14T00:46:51;5.82;;;3.85;;
43449;SDS011;29041;42.266;23.110;2023-03-14T00:49:39;11.23;;;5.25;;
43449;SDS011;29041;42.266;23.110;2023-03-14T00:52:28;11.48;;;5.28;;
43449;SDS011;29041;42.266;23.110;2023-03-14T00:55:15;16.30;;;5.18;;
43449;SDS011;29041;42.266;23.110;2023-03-14T00:58:03;7.35;;;3.50;;
43449;SDS011;29041;42.266;23.110;2023-03-14T01:00:51;5.55;;;3.17;;
43449;SDS011;29041;42.266;23.110;2023-03-14T01:03:38;7.55;;;3.65;;
43449;SDS011;29041;42.266;23.110;2023-03-14T01:06:26;9.52;;;4.35;;
43449;SDS011;29041;42.266;23.110;2023-03-14T01:09:13;6.65;;;3.30;;
43449;SDS011;29041;42.266;23.110;2023-03-14T01:12:02;7.53;;;3.40;;
43449;SDS011;29041;42.266;23.110;2023-03-14T01:14:52;7.15;;;3.30;;
43449;SDS011;29041;42.266;23.110;2023-03-14T01:17:41;6.53;;;3.58;;
43449;SDS011;29041;42.266;23.110;2023-03-14T01:20:28;10.32;;;4.78;;
43449;SDS011;29041;42.266;23.110;2023-03-14T01:23:15;7.18;;;4.38;;
43449;SDS011;29041;42.266;23.110;2023-03-14T01:26:02;9.95;;;5.05;;
43449;SDS011;29041;42.266;23.110;2023-03-14T01:28:54;8.75;;;3.47;;
43449;SDS011;29041;42.266;23.110;2023-03-14T01:31:41;6.57;;;4.35;;
43449;SDS011;29041;42.266;23.110;2023-03-14T01:37:20;10.30;;;5.30;;
43449;SDS011;29041;42.266;23.110;2023-03-14T01:40:12;9.77;;;4.53;;
43449;SDS011;29041;42.266;23.110;2023-03-14T01:43:05;10.40;;;5.15;;
43449;SDS011;29041;42.266;23.110;2023-03-14T01:49:08;9.35;;;4.10;;
43449;SDS011;29041;42.266;23.110;2023-03-14T01:51:56;10.32;;;5.15;;
43449;SDS011;29041;42.266;23.110;2023-03-14T01:54:47;11.40;;;4.75;;
43449;SDS011;29041;42.266;23.110;2023-03-14T01:57:36;10.05;;;3.92;;
43449;SDS011;29041;42.266;23.110;2023-03-14T02:00:25;9.02;;;3.75;;
43449;SDS011;29041;42.266;23.110;2023-03-14T02:03:15;7.20;;;3.42;;
43449;SDS011;29041;42.266;23.110;2023-03-14T02:06:06;8.93;;;3.97;;
43449;SDS011;29041;42.266;23.110;2023-03-14T02:08:54;6.10;;;3.17;;
43449;SDS011;29041;42.266;23.110;2023-03-14T02:11:42;13.25;;;4.20;;
43449;SDS011;29041;42.266;23.110;2023-03-14T02:14:31;7.38;;;3.47;;
43449;SDS011;29041;42.266;23.110;2023-03-14T02:17:18;9.38;;;3.50;;
43449;SDS011;29041;42.266;23.110;2023-03-14T02:20:14;6.20;;;3.80;;
43449;SDS011;29041;42.266;23.110;2023-03-14T02:23:05;6.30;;;3.47;;
43449;SDS011;29041;42.266;23.110;2023-03-14T02:26:00;7.07;;;3.10;;
43449;SDS011;29041;42.266;23.110;2023-03-14T02:36:31;7.55;;;3.65;;
43449;SDS011;29041;42.266;23.110;2023-03-14T02:41:53;7.40;;;3.58;;
43449;SDS011;29041;42.266;23.110;2023-03-14T02:44:48;7.40;;;3.20;;
43449;SDS011;29041;42.266;23.110;2023-03-14T02:47:35;6.68;;;3.85;;
43449;SDS011;29041;42.266;23.110;2023-03-14T02:50:33;6.00;;;3.00;;
43449;SDS011;29041;42.266;23.110;2023-03-14T02:53:24;13.75;;;3.88;;
43449;SDS011;29041;42.266;23.110;2023-03-14T02:56:11;7.50;;;3.78;;
43449;SDS011;29041;42.266;23.110;2023-03-14T03:01:34;5.80;;;2.95;;
43449;SDS011;29041;42.266;23.110;2023-03-14T03:04:20;6.43;;;3.33;;
43449;SDS011;29041;42.266;23.110;2023-03-14T03:07:07;6.90;;;3.38;;
43449;SDS011;29041;42.266;23.110;2023-03-14T03:09:56;7.82;;;4.75;;
43449;SDS011;29041;42.266;23.110;2023-03-14T03:12:51;7.57;;;4.13;;
43449;SDS011;29041;42.266;23.110;2023-03-14T03:15:38;7.32;;;4.15;;
43449;SDS011;29041;42.266;23.110;2023-03-14T03:18:26;8.00;;;3.90;;
43449;SDS011;29041;42.266;23.110;2023-03-14T03:21:13;7.93;;;4.10;;
43449;SDS011;29041;42.266;23.110;2023-03-14T03:24:01;8.73;;;3.97;;
43449;SDS011;29041;42.266;23.110;2023-03-14T03:26:50;8.32;;;3.30;;
43449;SDS011;29041;42.266;23.110;2023-03-14T03:32:55;7.90;;;3.35;;
43449;SDS011;29041;42.266;23.110;2023-03-14T03:35:42;14.20;;;3.90;;
43449;SDS011;29041;42.266;23.110;2023-03-14T03:46:16;6.25;;;3.50;;
43449;SDS011;29041;42.266;23.110;2023-03-14T03:49:03;5.97;;;3.20;;
43449;SDS011;29041;42.266;23.110;2023-03-14T03:51:50;14.35;;;3.88;;
43449;SDS011;29041;42.266;23.110;2023-03-14T03:54:37;7.20;;;3.88;;
43449;SDS011;29041;42.266;23.110;2023-03-14T03:57:24;9.27;;;3.47;;
43449;SDS011;29041;42.266;23.110;2023-03-14T04:00:11;7.20;;;3.55;;
43449;SDS011;29041;42.266;23.110;2023-03-14T04:02:59;6.90;;;3.75;;
43449;SDS011;29041;42.266;23.110;2023-03-14T04:05:46;6.30;;;4.15;;
43449;SDS011;29041;42.266;23.110;2023-03-14T04:08:33;13.80;;;5.25;;
43449;SDS011;29041;42.266;23.110;2023-03-14T04:11:20;7.97;;;4.43;;
43449;SDS011;29041;42.266;23.110;2023-03-14T04:14:08;9.52;;;4.30;;
43449;SDS011;29041;42.266;23.110;2023-03-14T04:17:07;7.28;;;3.72;;
43449;SDS011;29041;42.266;23.110;2023-03-14T04:19:55;9.63;;;4.22;;
43449;SDS011;29041;42.266;23.110;2023-03-14T04:22:42;8.27;;;4.05;;
43449;SDS011;29041;42.266;23.110;2023-03-14T04:25:30;11.27;;;4.63;;
43449;SDS011;29041;42.266;23.110;2023-03-14T04:28:17;11.45;;;4.30;;
43449;SDS011;29041;42.266;23.110;2023-03-14T04:31:07;9.45;;;4.93;;
43449;SDS011;29041;42.266;23.110;2023-03-14T04:33:55;7.15;;;4.78;;
43449;SDS011;29041;42.266;23.110;2023-03-14T04:36:46;14.10;;;6.13;;
43449;SDS011;29041;42.266;23.110;2023-03-14T04:39:33;8.40;;;3.97;;
43449;SDS011;29041;42.266;23.110;2023-03-14T04:42:20;10.07;;;4.32;;
43449;SDS011;29041;42.266;23.110;2023-03-14T04:45:07;6.28;;;3.60;;
43449;SDS011;29041;42.266;23.110;2023-03-14T04:47:54;6.95;;;4.72;;
43449;SDS011;29041;42.266;23.110;2023-03-14T04:50:43;9.57;;;4.97;;
43449;SDS011;29041;42.266;23.110;2023-03-14T04:53:35;11.13;;;6.65;;
43449;SDS011;29041;42.266;23.110;2023-03-14T04:56:22;14.25;;;6.68;;
43449;SDS011;29041;42.266;23.110;2023-03-14T04:59:09;8.65;;;5.30;;
43449;SDS011;29041;42.266;23.110;2023-03-14T05:01:58;10.27;;;4.80;;
43449;SDS011;29041;42.266;23.110;2023-03-14T05:04:45;13.23;;;6.93;;
43449;SDS011;29041;42.266;23.110;2023-03-14T05:07:39;15.02;;;7.40;;
43449;SDS011;29041;42.266;23.110;2023-03-14T05:14:02;13.77;;;7.38;;
43449;SDS011;29041;42.266;23.110;2023-03-14T05:25:50;45.45;;;14.48;;
43449;SDS011;29041;42.266;23.110;2023-03-14T05:47:44;12.68;;;8.20;;
43449;SDS011;29041;42.266;23.110;2023-03-14T05:50:37;29.65;;;14.15;;
43449;SDS011;29041;42.266;23.110;2023-03-14T05:53:26;20.33;;;11.40;;
43449;SDS011;29041;42.266;23.110;2023-03-14T05:59:34;18.35;;;8.60;;
43449;SDS011;29041;42.266;23.110;2023-03-14T06:02:27;13.83;;;7.80;;
43449;SDS011;29041;42.266;23.110;2023-03-14T06:08:57;14.48;;;6.50;;
43449;SDS011;29041;42.266;23.110;2023-03-14T06:12:03;13.20;;;7.22;;
43449;SDS011;29041;42.266;23.110;2023-03-14T06:22:50;10.77;;;6.00;;
43449;SDS011;29041;42.266;23.110;2023-03-14T06:25:53;10.88;;;5.93;;
43449;SDS011;29041;42.266;23.110;2023-03-14T06:28:47;8.52;;;5.63;;
43449;SDS011;29041;42.266;23.110;2023-03-14T06:31:43;18.55;;;8.50;;
43449;SDS011;29041;42.266;23.110;2023-03-14T06:37:35;13.80;;;5.38;;
43449;SDS011;29041;42.266;23.110;2023-03-14T06:40:49;16.85;;;7.65;;
43449;SDS011;29041;42.266;23.110;2023-03-14T06:54:04;10.18;;;6.57;;
43449;SDS011;29041;42.266;23.110;2023-03-14T06:57:00;15.45;;;7.70;;
43449;SDS011;29041;42.266;23.110;2023-03-14T06:59:51;12.95;;;7.82;;
43449;SDS011;29041;42.266;23.110;2023-03-14T07:02:43;19.02;;;8.80;;
43449;SDS011;29041;42.266;23.110;2023-03-14T07:05:42;23.02;;;7.68;;
43449;SDS011;29041;42.266;23.110;2023-03-14T07:08:34;15.32;;;6.38;;
43449;SDS011;29041;42.266;23.110;2023-03-14T07:11:25;9.50;;;5.38;;
43449;SDS011;29041;42.266;23.110;2023-03-14T07:14:16;11.27;;;5.88;;
43449;SDS011;29041;42.266;23.110;2023-03-14T07:17:07;9.40;;;5.45;;
43449;SDS011;29041;42.266;23.110;2023-03-14T07:19:59;31.50;;;18.55;;
43449;SDS011;29041;42.266;23.110;2023-03-14T07:22:49;11.68;;;6.82;;
43449;SDS011;29041;42.266;23.110;2023-03-14T07:25:41;19.52;;;7.57;;
43449;SDS011;29041;42.266;23.110;2023-03-14T07:28:39;6.88;;;4.20;;
43449;SDS011;29041;42.266;23.110;2023-03-14T07:31:28;9.63;;;4.72;;
43449;SDS011;29041;42.266;23.110;2023-03-14T07:34:20;9.27;;;5.10;;
43449;SDS011;29041;42.266;23.110;2023-03-14T07:37:25;12.38;;;4.65;;
43449;SDS011;29041;42.266;23.110;2023-03-14T07:40:40;9.48;;;4.05;;
43449;SDS011;29041;42.266;23.110;2023-03-14T07:43:46;7.60;;;3.58;;
43449;SDS011;29041;42.266;23.110;2023-03-14T07:46:47;9.50;;;3.47;;
43449;SDS011;29041;42.266;23.110;2023-03-14T07:49:36;7.45;;;3.45;;
43449;SDS011;29041;42.266;23.110;2023-03-14T07:52:40;6.80;;;3.78;;
43449;SDS011;29041;42.266;23.110;2023-03-14T07:55:43;8.80;;;4.18;;
43449;SDS011;29041;42.266;23.110;2023-03-14T07:58:55;7.20;;;3.63;;
43449;SDS011;29041;42.266;23.110;2023-03-14T08:02:16;4.72;;;3.03;;
43449;SDS011;29041;42.266;23.110;2023-03-14T08:05:18;8.95;;;2.92;;
43449;SDS011;29041;42.266;23.110;2023-03-14T08:08:19;5.22;;;3.40;;
43449;SDS011;29041;42.266;23.110;2023-03-14T08:11:18;7.47;;;4.00;;
43449;SDS011;29041;42.266;23.110;2023-03-14T08:14:38;8.25;;;3.85;;
43449;SDS011;29041;42.266;23.110;2023-03-14T08:17:38;8.18;;;3.58;;
43449;SDS011;29041;42.266;23.110;2023-03-14T08:20:38;8.27;;;3.85;;
43449;SDS011;29041;42.266;23.110;2023-03-14T08:23:40;5.38;;;3.50;;
43449;SDS011;29041;42.266;23.110;2023-03-14T08:26:33;6.75;;;3.83;;
43449;SDS011;29041;42.266;23.110;2023-03-14T08:31:58;6.25;;;3.75;;
43449;SDS011;29041;42.266;23.110;2023-03-14T08:34:43;5.95;;;3.40;;
43449;SDS011;29041;42.266;23.110;2023-03-14T08:37:44;6.53;;;3.05;;
43449;SDS011;29041;42.266;23.110;2023-03-14T08:40:34;6.43;;;4.07;;
43449;SDS011;29041;42.266;23.110;2023-03-14T08:43:37;7.57;;;2.93;;
43449;SDS011;29041;42.266;23.110;2023-03-14T08:46:35;6.45;;;2.72;;
43449;SDS011;29041;42.266;23.110;2023-03-14T08:49:40;7.25;;;3.10;;
43449;SDS011;29041;42.266;23.110;2023-03-14T08:52:49;6.53;;;3.13;;
43449;SDS011;29041;42.266;23.110;2023-03-14T08:55:52;4.00;;;1.70;;
43449;SDS011;29041;42.266;23.110;2023-03-14T09:02:01;4.20;;;2.75;;
43449;SDS011;29041;42.266;23.110;2023-03-14T09:25:59;3.78;;;1.38;;
43449;SDS011;29041;42.266;23.110;2023-03-14T09:29:23;5.88;;;2.42;;
43449;SDS011;29041;42.266;23.110;2023-03-14T09:32:24;4.07;;;2.60;;
43449;SDS011;29041;42.266;23.110;2023-03-14T09:38:21;2.92;;;2.10;;
43449;SDS011;29041;42.266;23.110;2023-03-14T09:41:18;2.88;;;1.92;;
43449;SDS011;29041;42.266;23.110;2023-03-14T09:44:16;3.83;;;1.92;;
43449;SDS011;29041;42.266;23.110;2023-03-14T09:47:09;3.63;;;2.17;;
43449;SDS011;29041;42.266;23.110;2023-03-14T09:49:58;3.28;;;2.10;;
43449;SDS011;29041;42.266;23.110;2023-03-14T09:52:49;4.40;;;2.50;;
43449;SDS011;29041;42.266;23.110;2023-03-14T09:56:01;3.55;;;2.13;;
43449;SDS011;29041;42.266;23.110;2023-03-14T09:59:06;2.53;;;2.10;;
43449;SDS011;29041;42.266;23.110;2023-03-14T10:02:10;4.25;;;2.45;;
43449;SDS011;29041;42.266;23.110;2023-03-14T10:05:07;2.33;;;1.70;;
43449;SDS011;29041;42.266;23.110;2023-03-14T10:08:05;6.35;;;3.08;;
43449;SDS011;29041;42.266;23.110;2023-03-14T10:10:52;4.78;;;2.22;;
43449;SDS011;29041;42.266;23.110;2023-03-14T10:13:47;3.40;;;2.00;;
43449;SDS011;29041;42.266;23.110;2023-03-14T10:16:37;12.40;;;4.53;;
43449;SDS011;29041;42.266;23.110;2023-03-14T10:22:41;3.08;;;2.40;;
43449;SDS011;29041;42.266;23.110;2023-03-14T10:25:29;4.45;;;2.03;;
43449;SDS011;29041;42.266;23.110;2023-03-14T10:28:22;4.30;;;2.45;;
43449;SDS011;29041;42.266;23.110;2023-03-14T10:31:13;5.95;;;2.53;;
43449;SDS011;29041;42.266;23.110;2023-03-14T10:34:04;4.75;;;2.80;;
43449;SDS011;29041;42.266;23.110;2023-03-14T10:36:53;4.82;;;2.70;;
43449;SDS011;29041;42.266;23.110;2023-03-14T10:39:55;10.88;;;6.60;;
43449;SDS011;29041;42.266;23.110;2023-03-14T10:42:46;8.05;;;3.60;;
43449;SDS011;29041;42.266;23.110;2023-03-14T10:45:38;5.35;;;2.45;;
43449;SDS011;29041;42.266;23.110;2023-03-14T10:48:29;5.43;;;2.65;;
43449;SDS011;29041;42.266;23.110;2023-03-14T10:51:24;5.90;;;2.47;;
43449;SDS011;29041;42.266;23.110;2023-03-14T10:54:12;4.25;;;2.60;;
43449;SDS011;29041;42.266;23.110;2023-03-14T10:57:00;4.05;;;2.33;;
43449;SDS011;29041;42.266;23.110;2023-03-14T10:59:47;4.45;;;3.20;;
43449;SDS011;29041;42.266;23.110;2023-03-14T11:02:37;3.38;;;2.33;;
43449;SDS011;29041;42.266;23.110;2023-03-14T11:05:29;3.42;;;2.63;;
43449;SDS011;29041;42.266;23.110;2023-03-14T11:08:20;3.72;;;2.55;;
43449;SDS011;29041;42.266;23.110;2023-03-14T11:11:12;3.92;;;2.88;;
43449;SDS011;29041;42.266;23.110;2023-03-14T11:14:04;5.05;;;3.58;;
43449;SDS011;29041;42.266;23.110;2023-03-14T11:16:56;4.97;;;2.83;;
43449;SDS011;29041;42.266;23.110;2023-03-14T11:22:55;3.50;;;2.10;;
43449;SDS011;29041;42.266;23.110;2023-03-14T11:25:46;3.20;;;1.85;;
43449;SDS011;29041;42.266;23.110;2023-03-14T11:28:36;3.78;;;2.38;;
43449;SDS011;29041;42.266;23.110;2023-03-14T11:31:25;5.95;;;2.38;;
43449;SDS011;29041;42.266;23.110;2023-03-14T11:34:14;8.23;;;3.17;;
43449;SDS011;29041;42.266;23.110;2023-03-14T11:37:04;3.55;;;2.40;;
43449;SDS011;29041;42.266;23.110;2023-03-14T11:39:55;10.43;;;2.33;;
43449;SDS011;29041;42.266;23.110;2023-03-14T11:42:44;3.28;;;1.95;;
43449;SDS011;29041;42.266;23.110;2023-03-14T11:45:34;4.97;;;2.05;;
43449;SDS011;29041;42.266;23.110;2023-03-14T11:48:24;2.55;;;1.40;;
43449;SDS011;29041;42.266;23.110;2023-03-14T11:51:17;1.55;;;1.30;;
43449;SDS011;29041;42.266;23.110;2023-03-14T11:54:11;2.33;;;1.42;;
43449;SDS011;29041;42.266;23.110;2023-03-14T11:56:59;5.80;;;3.00;;
43449;SDS011;29041;42.266;23.110;2023-03-14T11:59:50;3.20;;;2.13;;
43449;SDS011;29041;42.266;23.110;2023-03-14T12:02:40;2.65;;;1.70;;
43449;SDS011;29041;42.266;23.110;2023-03-14T12:05:41;2.53;;;1.80;;
43449;SDS011;29041;42.266;23.110;2023-03-14T12:08:39;8.00;;;4.65;;
43449;SDS011;29041;42.266;23.110;2023-03-14T12:11:36;2.17;;;1.30;;
43449;SDS011;29041;42.266;23.110;2023-03-14T12:14:25;4.38;;;2.42;;
43449;SDS011;29041;42.266;23.110;2023-03-14T12:17:19;2.50;;;1.65;;
43449;SDS011;29041;42.266;23.110;2023-03-14T12:20:15;11.00;;;5.68;;
43449;SDS011;29041;42.266;23.110;2023-03-14T12:23:03;13.75;;;5.53;;
43449;SDS011;29041;42.266;23.110;2023-03-14T12:26:05;13.27;;;5.95;;
43449;SDS011;29041;42.266;23.110;2023-03-14T12:29:09;3.90;;;2.25;;
43449;SDS011;29041;42.266;23.110;2023-03-14T12:32:06;6.40;;;3.55;;
43449;SDS011;29041;42.266;23.110;2023-03-14T12:34:55;2.70;;;1.65;;
43449;SDS011;29041;42.266;23.110;2023-03-14T12:37:42;1.85;;;1.27;;
43449;SDS011;29041;42.266;23.110;2023-03-14T12:40:32;3.22;;;1.58;;
43449;SDS011;29041;42.266;23.110;2023-03-14T12:43:24;1.40;;;1.20;;
43449;SDS011;29041;42.266;23.110;2023-03-14T12:46:15;2.07;;;1.37;;
43449;SDS011;29041;42.266;23.110;2023-03-14T12:49:07;11.77;;;4.28;;
43449;SDS011;29041;42.266;23.110;2023-03-14T12:51:59;1.52;;;0.95;;
43449;SDS011;29041;42.266;23.110;2023-03-14T12:54:46;2.55;;;1.50;;
43449;SDS011;29041;42.266;23.110;2023-03-14T12:57:36;1.65;;;1.13;;
43449;SDS011;29041;42.266;23.110;2023-03-14T13:00:29;1.48;;;1.15;;
43449;SDS011;29041;42.266;23.110;2023-03-14T13:03:18;4.47;;;3.03;;
43449;SDS011;29041;42.266;23.110;2023-03-14T13:06:08;5.30;;;2.92;;
43449;SDS011;29041;42.266;23.110;2023-03-14T13:08:57;7.53;;;4.38;;
43449;SDS011;29041;42.266;23.110;2023-03-14T13:11:44;4.35;;;2.03;;
43449;SDS011;29041;42.266;23.110;2023-03-14T13:14:31;6.38;;;3.25;;
43449;SDS011;29041;42.266;23.110;2023-03-14T13:17:22;1.30;;;1.02;;
43449;SDS011;29041;42.266;23.110;2023-03-14T13:20:11;14.73;;;3.83;;
43449;SDS011;29041;42.266;23.110;2023-03-14T13:22:59;4.32;;;1.40;;
43449;SDS011;29041;42.266;23.110;2023-03-14T13:25:47;5.47;;;2.42;;
43449;SDS011;29041;42.266;23.110;2023-03-14T13:28:34;9.63;;;3.58;;
43449;SDS011;29041;42.266;23.110;2023-03-14T13:31:22;28.88;;;8.23;;
43449;SDS011;29041;42.266;23.110;2023-03-14T13:34:10;14.32;;;4.68;;
43449;SDS011;29041;42.266;23.110;2023-03-14T13:36:57;12.70;;;5.85;;
43449;SDS011;29041;42.266;23.110;2023-03-14T13:39:48;6.28;;;2.80;;
43449;SDS011;29041;42.266;23.110;2023-03-14T13:42:36;4.82;;;1.98;;
43449;SDS011;29041;42.266;23.110;2023-03-14T13:45:23;1.42;;;0.77;;
43449;SDS011;29041;42.266;23.110;2023-03-14T13:48:10;2.50;;;1.10;;
43449;SDS011;29041;42.266;23.110;2023-03-14T13:51:01;2.72;;;1.52;;
43449;SDS011;29041;42.266;23.110;2023-03-14T13:53:49;2.08;;;1.10;;
43449;SDS011;29041;42.266;23.110;2023-03-14T13:56:36;3.05;;;1.60;;
43449;SDS011;29041;42.266;23.110;2023-03-14T13:59:25;3.78;;;1.20;;
43449;SDS011;29041;42.266;23.110;2023-03-14T14:02:12;2.45;;;0.80;;
43449;SDS011;29041;42.266;23.110;2023-03-14T14:05:00;6.22;;;2.85;;
43449;SDS011;29041;42.266;23.110;2023-03-14T14:07:48;4.60;;;1.35;;
43449;SDS011;29041;42.266;23.110;2023-03-14T14:10:36;4.03;;;1.05;;
43449;SDS011;29041;42.266;23.110;2023-03-14T14:16:48;2.00;;;1.10;;
43449;SDS011;29041;42.266;23.110;2023-03-14T14:20:03;2.25;;;1.20;;
43449;SDS011;29041;42.266;23.110;2023-03-14T14:23:19;4.32;;;1.92;;
43449;SDS011;29041;42.266;23.110;2023-03-14T14:26:31;2.35;;;1.13;;
43449;SDS011;29041;42.266;23.110;2023-03-14T14:29:24;2.50;;;1.20;;
43449;SDS011;29041;42.266;23.110;2023-03-14T14:32:14;1.65;;;0.98;;
43449;SDS011;29041;42.266;23.110;2023-03-14T14:35:01;1.73;;;1.13;;
43449;SDS011;29041;42.266;23.110;2023-03-14T14:37:49;8.10;;;1.88;;
43449;SDS011;29041;42.266;23.110;2023-03-14T14:43:59;1.85;;;1.10;;
43449;SDS011;29041;42.266;23.110;2023-03-14T14:50:52;6.57;;;2.25;;
43449;SDS011;29041;42.266;23.110;2023-03-14T14:57:33;4.07;;;1.08;;
43449;SDS011;29041;42.266;23.110;2023-03-14T15:00:41;1.83;;;1.10;;
43449;SDS011;29041;42.266;23.110;2023-03-14T15:06:42;3.30;;;1.15;;
43449;SDS011;29041;42.266;23.110;2023-03-14T15:09:30;3.75;;;1.48;;
43449;SDS011;29041;42.266;23.110;2023-03-14T15:15:49;2.88;;;1.40;;
43449;SDS011;29041;42.266;23.110;2023-03-14T15:18:47;2.45;;;1.40;;
43449;SDS011;29041;42.266;23.110;2023-03-14T15:41:56;2.22;;;1.38;;
43449;SDS011;29041;42.266;23.110;2023-03-14T15:44:43;2.45;;;1.88;;
43449;SDS011;29041;42.266;23.110;2023-03-14T15:47:59;3.08;;;1.50;;
43449;SDS011;29041;42.266;23.110;2023-03-14T15:51:30;4.63;;;1.48;;
43449;SDS011;29041;42.266;23.110;2023-03-14T15:54:17;1.95;;;0.90;;
43449;SDS011;29041;42.266;23.110;2023-03-14T16:13:19;5.22;;;1.20;;
43449;SDS011;29041;42.266;23.110;2023-03-14T16:16:09;3.10;;;1.42;;
43449;SDS011;29041;42.266;23.110;2023-03-14T16:21:49;6.38;;;1.45;;
43449;SDS011;29041;42.266;23.110;2023-03-14T17:47:45;8.35;;;4.10;;
43449;SDS011;29041;42.266;23.110;2023-03-14T17:50:54;11.98;;;5.30;;
43449;SDS011;29041;42.266;23.110;2023-03-14T17:53:45;12.30;;;6.82;;
43449;SDS011;29041;42.266;23.110;2023-03-14T17:56:38;9.60;;;5.75;;
43449;SDS011;29041;42.266;23.110;2023-03-14T17:59:35;5.63;;;3.50;;
43449;SDS011;29041;42.266;23.110;2023-03-14T18:02:24;10.60;;;3.80;;
43449;SDS011;29041;42.266;23.110;2023-03-14T18:08:25;10.90;;;5.00;;
43449;SDS011;29041;42.266;23.110;2023-03-14T18:11:20;6.97;;;3.63;;
43449;SDS011;29041;42.266;23.110;2023-03-14T18:14:09;9.30;;;4.20;;
43449;SDS011;29041;42.266;23.110;2023-03-14T18:19:51;4.90;;;3.40;;
43449;SDS011;29041;42.266;23.110;2023-03-14T18:51:24;5.05;;;3.22;;
43449;SDS011;29041;42.266;23.110;2023-03-14T18:54:11;4.93;;;2.50;;
43449;SDS011;29041;42.266;23.110;2023-03-14T18:57:00;4.07;;;2.25;;
43449;SDS011;29041;42.266;23.110;2023-03-14T18:59:47;3.65;;;2.92;;
43449;SDS011;29041;42.266;23.110;2023-03-14T19:02:34;4.57;;;2.60;;
43449;SDS011;29041;42.266;23.110;2023-03-14T19:05:21;4.00;;;2.65;;
43449;SDS011;29041;42.266;23.110;2023-03-14T19:08:24;4.53;;;3.00;;
43449;SDS011;29041;42.266;23.110;2023-03-14T19:11:15;6.25;;;3.05;;
43449;SDS011;29041;42.266;23.110;2023-03-14T19:14:04;3.30;;;2.35;;
43449;SDS011;29041;42.266;23.110;2023-03-14T19:16:52;4.45;;;2.17;;
43449;SDS011;29041;42.266;23.110;2023-03-14T19:19:39;3.95;;;2.10;;
43449;SDS011;29041;42.266;23.110;2023-03-14T19:22:27;8.05;;;4.20;;
43449;SDS011;29041;42.266;23.110;2023-03-14T19:33:05;17.15;;;8.18;;
43449;SDS011;29041;42.266;23.110;2023-03-14T19:35:57;18.85;;;12.90;;
43449;SDS011;29041;42.266;23.110;2023-03-14T19:41:22;70.60;;;33.22;;
43449;SDS011;29041;42.266;23.110;2023-03-14T19:44:12;43.67;;;19.15;;
43449;SDS011;29041;42.266;23.110;2023-03-14T19:47:00;71.60;;;30.23;;
43449;SDS011;29041;42.266;23.110;2023-03-14T19:50:01;162.82;;;50.35;;
43449;SDS011;29041;42.266;23.110;2023-03-14T19:52:50;56.58;;;22.00;;
43449;SDS011;29041;42.266;23.110;2023-03-14T19:55:40;55.13;;;19.50;;
43449;SDS011;29041;42.266;23.110;2023-03-14T19:58:31;48.08;;;25.95;;
43449;SDS011;29041;42.266;23.110;2023-03-14T20:01:18;18.52;;;9.60;;
43449;SDS011;29041;42.266;23.110;2023-03-14T20:04:08;23.60;;;10.48;;
43449;SDS011;29041;42.266;23.110;2023-03-14T20:07:01;34.67;;;16.10;;
43449;SDS011;29041;42.266;23.110;2023-03-14T20:13:00;21.70;;;10.57;;
43449;SDS011;29041;42.266;23.110;2023-03-14T20:15:48;37.22;;;12.82;;
43449;SDS011;29041;42.266;23.110;2023-03-14T20:18:37;33.15;;;14.23;;
43449;SDS011;29041;42.266;23.110;2023-03-14T20:21:24;22.98;;;10.27;;
43449;SDS011;29041;42.266;23.110;2023-03-14T20:24:15;11.38;;;6.97;;
43449;SDS011;29041;42.266;23.110;2023-03-14T20:27:05;20.70;;;9.63;;
43449;SDS011;29041;42.266;23.110;2023-03-14T20:29:54;12.98;;;6.43;;
43449;SDS011;29041;42.266;23.110;2023-03-14T20:32:41;19.30;;;9.70;;
43449;SDS011;29041;42.266;23.110;2023-03-14T20:35:30;33.78;;;13.52;;
43449;SDS011;29041;42.266;23.110;2023-03-14T20:56:14;6.82;;;3.47;;
43449;SDS011;29041;42.266;23.110;2023-03-14T20:59:01;4.97;;;3.30;;
43449;SDS011;29041;42.266;23.110;2023-03-14T21:01:49;8.40;;;3.67;;
43449;SDS011;29041;42.266;23.110;2023-03-14T21:04:36;7.82;;;2.92;;
43449;SDS011;29041;42.266;23.110;2023-03-14T21:07:23;9.70;;;4.32;;
43449;SDS011;29041;42.266;23.110;2023-03-14T21:10:11;6.68;;;3.25;;
43449;SDS011;29041;42.266;23.110;2023-03-14T21:15:36;6.80;;;4.47;;
43449;SDS011;29041;42.266;23.110;2023-03-14T21:18:23;6.45;;;4.25;;
43449;SDS011;29041;42.266;23.110;2023-03-14T21:21:10;11.48;;;4.53;;
43449;SDS011;29041;42.266;23.110;2023-03-14T21:23:58;5.53;;;4.57;;
43449;SDS011;29041;42.266;23.110;2023-03-14T21:26:47;7.93;;;4.53;;
43449;SDS011;29041;42.266;23.110;2023-03-14T21:29:33;18.17;;;7.47;;
43449;SDS011;29041;42.266;23.110;2023-03-14T21:32:23;12.80;;;6.32;;
43449;SDS011;29041;42.266;23.110;2023-03-14T21:35:10;18.40;;;7.68;;
43449;SDS011;29041;42.266;23.110;2023-03-14T21:37:57;9.93;;;5.63;;
43449;SDS011;29041;42.266;23.110;2023-03-14T21:40:44;12.73;;;6.57;;
43449;SDS011;29041;42.266;23.110;2023-03-14T21:43:34;8.50;;;5.63;;
43449;SDS011;29041;42.266;23.110;2023-03-14T21:46:21;10.25;;;5.45;;
43449;SDS011;29041;42.266;23.110;2023-03-14T21:49:12;14.18;;;6.47;;
43449;SDS011;29041;42.266;23.110;2023-03-14T21:52:04;12.48;;;6.90;;
43449;SDS011;29041;42.266;23.110;2023-03-14T21:54:51;11.65;;;5.70;;
43449;SDS011;29041;42.266;23.110;2023-03-14T21:57:37;13.93;;;6.60;;
43449;SDS011;29041;42.266;23.110;2023-03-14T22:00:24;8.35;;;4.60;;
43449;SDS011;29041;42.266;23.110;2023-03-14T22:03:12;6.35;;;4.20;;
43449;SDS011;29041;42.266;23.110;2023-03-14T22:06:03;7.88;;;4.13;;
43449;SDS011;29041;42.266;23.110;2023-03-14T22:08:53;10.27;;;4.53;;
43449;SDS011;29041;42.266;23.110;2023-03-14T22:11:40;14.27;;;7.35;;
43449;SDS011;29041;42.266;23.110;2023-03-14T22:14:27;17.52;;;9.52;;
43449;SDS011;29041;42.266;23.110;2023-03-14T22:17:14;18.52;;;8.98;;
43449;SDS011;29041;42.266;23.110;2023-03-14T22:20:01;9.38;;;5.57;;
43449;SDS011;29041;42.266;23.110;2023-03-14T22:22:55;21.25;;;10.13;;
43449;SDS011;29041;42.266;23.110;2023-03-14T22:25:43;11.57;;;6.10;;
43449;SDS011;29041;42.266;23.110;2023-03-14T22:28:31;10.60;;;6.18;;
43449;SDS011;29041;42.266;23.110;2023-03-14T22:31:18;12.70;;;6.32;;